Time;durP1;ratioP1;P1;durP2;ratioP2;P2;SDS_P1;SDS_P2;PMS_P1;PMS_P2;Temp;Humidity;BMP_temperature;BMP_pressure;BME280_temperature;BME280_humidity;BME280_pressure;Samples;Min_cycle;Max_cycle;Signal;HPM_P1;HPM_P2
2022/02/07 00:01:08;;;;;;;6.88;2.38;;;;;;;;;;5117401;27;20178;-68
2022/02/07 00:03:43;;;;;;;3.13;1.55;;;;;;;;;;5117449;28;20232;-69
2022/02/07 00:06:13;;;;;;;10.32;2.42;;;;;;;;;;5116459;28;20237;-70
2022/02/07 00:08:40;;;;;;;5.80;2.13;;;;;;;;;;5116456;28;20630;-68
2022/02/07 00:11:07;;;;;;;14.07;2.50;;;;;;;;;;5116173;28;20284;-68
2022/02/07 00:13:35;;;;;;;4.47;2.15;;;;;;;;;;5116410;28;20208;-68
2022/02/07 00:16:02;;;;;;;3.35;1.60;;;;;;;;;;5116428;28;20220;-68
2022/02/07 00:18:29;;;;;;;4.00;1.95;;;;;;;;;;5116398;28;20217;-67
2022/02/07 00:20:57;;;;;;;3.40;2.22;;;;;;;;;;5115964;28;20197;-67
2022/02/07 00:23:27;;;;;;;7.60;2.13;;;;;;;;;;5115855;28;20213;-67
2022/02/07 00:25:54;;;;;;;8.00;2.03;;;;;;;;;;5116399;28;20199;-67
2022/02/07 00:28:22;;;;;;;4.03;1.80;;;;;;;;;;5115725;28;20195;-67
2022/02/07 00:30:49;;;;;;;4.25;1.80;;;;;;;;;;5116394;28;20246;-67
2022/02/07 00:33:16;;;;;;;1.85;1.25;;;;;;;;;;5116124;28;20591;-67
2022/02/07 00:35:43;;;;;;;2.70;1.40;;;;;;;;;;5116096;28;20232;-67
2022/02/07 00:38:16;;;;;;;8.57;2.08;;;;;;;;;;5115977;28;20193;-67
2022/02/07 00:40:56;;;;;;;3.88;1.90;;;;;;;;;;5116496;28;20598;-67
2022/02/07 00:43:32;;;;;;;3.40;1.20;;;;;;;;;;5115848;28;20213;-67
2022/02/07 00:46:05;;;;;;;5.88;1.63;;;;;;;;;;5115540;28;20269;-66
2022/02/07 00:48:32;;;;;;;2.50;1.30;;;;;;;;;;5115964;28;20707;-66
2022/02/07 00:51:00;;;;;;;3.28;1.83;;;;;;;;;;5115917;28;20654;-67
2022/02/07 00:53:27;;;;;;;3.42;1.38;;;;;;;;;;5115384;28;20234;-66
2022/02/07 00:55:56;;;;;;;3.78;1.52;;;;;;;;;;5115974;28;20290;-66
2022/02/07 00:58:23;;;;;;;5.03;1.80;;;;;;;;;;5115288;28;20612;-66
2022/02/07 01:00:52;;;;;;;2.90;1.60;;;;;;;;;;5115142;28;20711;-66
2022/02/07 01:03:19;;;;;;;6.68;1.92;;;;;;;;;;5115665;28;20205;-66
2022/02/07 01:05:47;;;;;;;5.90;1.77;;;;;;;;;;5115607;28;20318;-66
2022/02/07 01:08:15;;;;;;;9.07;2.80;;;;;;;;;;5115027;28;20229;-66
2022/02/07 01:10:52;;;;;;;2.80;2.63;;;;;;;;;;5114974;28;20189;-66
2022/02/07 01:13:31;;;;;;;5.10;2.47;;;;;;;;;;5115332;28;20190;-66
2022/02/07 01:16:08;;;;;;;7.85;2.45;;;;;;;;;;5115774;28;20182;-66
2022/02/07 01:46:46;;;;;;;3.67;1.60;;;;;;;;;;5114536;28;20266;-66
2022/02/07 01:49:44;;;;;;;7.63;3.45;;;;;;;;;;5114632;28;20197;-66
2022/02/07 01:52:24;;;;;;;7.53;2.17;;;;;;;;;;5115010;28;20186;-67
2022/02/07 01:55:04;;;;;;;6.07;2.10;;;;;;;;;;5114671;28;20221;-66
2022/02/07 01:57:31;;;;;;;6.57;2.22;;;;;;;;;;5114874;28;20201;-66
2022/02/07 01:59:58;;;;;;;6.35;2.38;;;;;;;;;;5114102;28;20284;-67
2022/02/07 02:02:27;;;;;;;10.45;2.95;;;;;;;;;;5114386;28;20287;-65
2022/02/07 02:04:54;;;;;;;12.00;2.30;;;;;;;;;;5114038;28;20215;-66
2022/02/07 02:07:21;;;;;;;4.95;1.92;;;;;;;;;;5114095;28;20718;-65
2022/02/07 02:09:49;;;;;;;5.68;1.90;;;;;;;;;;5114311;28;20227;-66
2022/02/07 02:12:16;;;;;;;12.70;2.65;;;;;;;;;;5114539;28;20199;-65
2022/02/07 02:14:56;;;;;;;4.50;1.85;;;;;;;;;;5114240;28;20226;-65
2022/02/07 02:18:09;;;;;;;11.95;2.35;;;;;;;;;;5113907;28;20218;-66
2022/02/07 02:35:14;;;;;;;8.88;1.90;;;;;;;;;;5080150;28;20689;-66
2022/02/07 02:37:46;;;;;;;5.47;2.33;;;;;;;;;;5113505;28;20193;-66
2022/02/07 02:45:45;;;;;;;3.50;1.80;;;;;;;;;;5113835;28;20210;-65
2022/02/07 02:48:18;;;;;;;4.82;1.70;;;;;;;;;;5113488;28;20203;-65
2022/02/07 02:50:48;;;;;;;9.27;2.40;;;;;;;;;;5114236;28;20207;-66
2022/02/07 02:53:16;;;;;;;6.05;2.47;;;;;;;;;;5113622;28;20651;-66
2022/02/07 02:55:46;;;;;;;11.82;2.75;;;;;;;;;;5113826;28;20200;-66
2022/02/07 02:58:14;;;;;;;15.23;2.90;;;;;;;;;;5113496;28;20281;-65
2022/02/07 03:00:41;;;;;;;12.05;3.08;;;;;;;;;;5113746;28;20198;-65
2022/02/07 03:03:09;;;;;;;9.68;2.55;;;;;;;;;;5113745;28;20195;-65
2022/02/07 03:05:36;;;;;;;6.00;2.67;;;;;;;;;;5113566;28;20231;-65
2022/02/07 03:08:03;;;;;;;8.45;2.20;;;;;;;;;;5114212;28;20224;-65
2022/02/07 03:10:42;;;;;;;8.80;2.28;;;;;;;;;;5114427;28;20189;-65
2022/02/07 03:13:14;;;;;;;5.45;1.85;;;;;;;;;;5114347;28;20197;-65
2022/02/07 03:18:26;;;;;;;1.55;1.10;;;;;;;;;;5113483;28;20180;-65
2022/02/07 03:20:54;;;;;;;2.25;1.75;;;;;;;;;;5113980;28;20190;-65
2022/02/07 03:23:21;;;;;;;3.75;1.85;;;;;;;;;;5113209;28;20194;-65
2022/02/07 03:25:49;;;;;;;4.70;2.72;;;;;;;;;;5113198;28;20248;-66
2022/02/07 03:28:18;;;;;;;7.55;1.67;;;;;;;;;;5113725;28;20272;-65
2022/02/07 03:30:45;;;;;;;3.28;1.98;;;;;;;;;;5113652;28;20195;-66
2022/02/07 03:33:12;;;;;;;3.30;1.48;;;;;;;;;;5113191;28;20659;-66
2022/02/07 03:35:40;;;;;;;6.30;2.03;;;;;;;;;;5113442;28;20220;-65
2022/02/07 03:38:08;;;;;;;2.90;2.03;;;;;;;;;;5113071;28;20703;-65
2022/02/07 03:40:35;;;;;;;4.55;1.65;;;;;;;;;;5113432;28;20654;-66
2022/02/07 03:43:03;;;;;;;1.95;1.50;;;;;;;;;;5113739;28;20284;-66
2022/02/07 03:45:31;;;;;;;5.47;2.00;;;;;;;;;;5117187;28;20326;-66
2022/02/07 03:47:59;;;;;;;3.38;1.42;;;;;;;;;;5117008;28;20254;-66
2022/02/07 03:50:26;;;;;;;8.55;2.08;;;;;;;;;;5116678;28;20697;-65
2022/02/07 03:52:53;;;;;;;9.15;2.13;;;;;;;;;;5117356;28;20234;-66
2022/02/07 03:55:20;;;;;;;4.85;2.00;;;;;;;;;;5116679;28;20288;-65
2022/02/07 03:57:48;;;;;;;12.32;2.70;;;;;;;;;;5116977;28;20194;-65
2022/02/07 04:00:16;;;;;;;11.82;1.98;;;;;;;;;;5116817;28;20279;-65
2022/02/07 04:02:49;;;;;;;4.75;2.28;;;;;;;;;;5116873;28;20196;-66
2022/02/07 04:05:39;;;;;;;7.78;2.50;;;;;;;;;;5116477;28;20327;-66
2022/02/07 04:08:08;;;;;;;9.30;2.28;;;;;;;;;;5116575;28;20305;-66
2022/02/07 04:10:42;;;;;;;9.02;2.30;;;;;;;;;;5116224;28;20198;-66
2022/02/07 04:13:12;;;;;;;6.57;2.55;;;;;;;;;;5116595;28;20192;-66
2022/02/07 04:15:39;;;;;;;13.00;2.03;;;;;;;;;;5116147;28;20268;-66
2022/02/07 04:18:12;;;;;;;4.97;2.05;;;;;;;;;;5116631;28;20224;-66
2022/02/07 04:20:39;;;;;;;6.90;2.13;;;;;;;;;;5116056;28;20185;-67
2022/02/07 04:23:06;;;;;;;6.65;1.90;;;;;;;;;;5116036;28;20191;-66
2022/02/07 04:25:34;;;;;;;9.43;3.00;;;;;;;;;;5116192;28;20304;-66
2022/02/07 04:28:02;;;;;;;9.00;2.90;;;;;;;;;;5116199;28;20291;-66
2022/02/07 04:30:29;;;;;;;12.90;3.22;;;;;;;;;;5116639;28;20243;-66
2022/02/07 04:32:56;;;;;;;8.35;2.83;;;;;;;;;;5115747;28;20196;-66
2022/02/07 04:35:25;;;;;;;6.82;3.17;;;;;;;;;;5115827;28;20204;-67
2022/02/07 04:37:52;;;;;;;7.47;1.63;;;;;;;;;;5115971;28;20229;-65
2022/02/07 04:40:19;;;;;;;10.15;2.25;;;;;;;;;;5115954;28;20251;-66
2022/02/07 04:42:47;;;;;;;11.07;3.55;;;;;;;;;;5116546;28;20621;-66
2022/02/07 04:45:30;;;;;;;10.98;2.42;;;;;;;;;;5115794;28;20271;-65
2022/02/07 04:50:48;;;;;;;8.57;3.15;;;;;;;;;;5112685;28;20242;-66
2022/02/07 04:53:22;;;;;;;8.80;2.70;;;;;;;;;;5115420;28;20675;-66
2022/02/07 04:56:12;;;;;;;15.05;3.58;;;;;;;;;;5115518;28;20242;-65
2022/02/07 04:58:43;;;;;;;8.38;3.00;;;;;;;;;;5115202;28;20204;-66
2022/02/07 05:01:14;;;;;;;13.70;2.75;;;;;;;;;;5115777;28;20233;-65
2022/02/07 05:03:46;;;;;;;10.30;3.53;;;;;;;;;;5115546;28;20186;-66
2022/02/07 05:14:31;;;;;;;12.48;2.70;;;;;;;;;;5115171;28;20222;-66
2022/02/07 05:16:59;;;;;;;7.22;1.90;;;;;;;;;;5115224;28;20198;-67
2022/02/07 05:19:27;;;;;;;9.90;2.75;;;;;;;;;;5115162;28;20205;-67
2022/02/07 05:21:55;;;;;;;8.45;2.55;;;;;;;;;;5115324;28;20287;-67
2022/02/07 05:24:22;;;;;;;10.77;2.53;;;;;;;;;;5115017;28;20202;-67
2022/02/07 05:26:50;;;;;;;6.00;2.60;;;;;;;;;;5114444;28;20222;-67
2022/02/07 05:29:17;;;;;;;6.07;2.25;;;;;;;;;;5114208;28;20588;-67
2022/02/07 05:31:44;;;;;;;5.15;2.15;;;;;;;;;;5113920;28;20207;-67
2022/02/07 05:34:12;;;;;;;11.07;2.50;;;;;;;;;;5114526;28;20230;-68
2022/02/07 05:36:43;;;;;;;5.65;1.83;;;;;;;;;;5114159;28;20285;-67
2022/02/07 05:39:17;;;;;;;20.27;4.97;;;;;;;;;;5114271;28;20200;-67
2022/02/07 05:41:44;;;;;;;16.77;3.35;;;;;;;;;;5114214;28;20338;-67
2022/02/07 05:44:12;;;;;;;8.57;2.00;;;;;;;;;;5114192;28;20200;-67
2022/02/07 05:46:39;;;;;;;6.22;2.00;;;;;;;;;;5114178;28;20222;-67
2022/02/07 05:49:07;;;;;;;5.07;1.98;;;;;;;;;;5114094;28;20198;-68
2022/02/07 05:51:34;;;;;;;20.27;3.38;;;;;;;;;;5114178;28;20240;-67
2022/02/07 05:54:01;;;;;;;8.50;2.63;;;;;;;;;;5114057;28;20290;-67
2022/02/07 05:56:30;;;;;;;7.40;2.00;;;;;;;;;;5113554;28;20659;-66
2022/02/07 05:58:57;;;;;;;7.63;2.40;;;;;;;;;;5113870;28;20229;-67
2022/02/07 06:01:25;;;;;;;9.02;2.88;;;;;;;;;;5113597;28;20652;-67
2022/02/07 06:03:55;;;;;;;9.20;2.95;;;;;;;;;;5114268;28;20326;-66
2022/02/07 06:06:23;;;;;;;16.10;4.20;;;;;;;;;;5114846;28;20640;-67
2022/02/07 06:08:50;;;;;;;12.38;3.45;;;;;;;;;;5113659;28;20193;-66
2022/02/07 06:11:17;;;;;;;11.90;3.55;;;;;;;;;;5114262;28;20617;-66
2022/02/07 06:13:46;;;;;;;11.38;2.85;;;;;;;;;;5114071;28;20203;-66
2022/02/07 06:16:16;;;;;;;15.27;4.60;;;;;;;;;;5114063;28;20238;-67
2022/02/07 06:18:44;;;;;;;15.80;3.80;;;;;;;;;;5114283;28;20360;-67
2022/02/07 06:21:13;;;;;;;15.85;4.22;;;;;;;;;;5113766;28;20216;-66
2022/02/07 06:23:40;;;;;;;7.40;3.15;;;;;;;;;;5114063;28;20286;-67
2022/02/07 06:26:08;;;;;;;16.50;3.17;;;;;;;;;;5114015;28;20226;-67
2022/02/07 06:28:35;;;;;;;19.92;3.50;;;;;;;;;;5114186;28;20632;-66
2022/02/07 06:31:03;;;;;;;7.15;2.00;;;;;;;;;;5114502;28;20203;-65
2022/02/07 06:33:31;;;;;;;10.02;2.00;;;;;;;;;;5113956;28;20201;-65
2022/02/07 06:35:59;;;;;;;13.38;3.15;;;;;;;;;;5113684;28;20210;-65
2022/02/07 06:38:27;;;;;;;10.32;2.75;;;;;;;;;;5114058;28;20253;-65
2022/02/07 06:40:54;;;;;;;6.35;2.40;;;;;;;;;;5113475;28;20209;-65
2022/02/07 06:43:21;;;;;;;13.73;2.88;;;;;;;;;;5113752;28;20201;-65
2022/02/07 06:45:48;;;;;;;12.18;3.67;;;;;;;;;;5113717;28;20214;-65
2022/02/07 06:48:17;;;;;;;15.73;3.85;;;;;;;;;;5113973;28;20278;-65
2022/02/07 06:50:44;;;;;;;14.27;3.78;;;;;;;;;;5113444;28;20644;-65
2022/02/07 06:53:11;;;;;;;13.32;3.58;;;;;;;;;;5113444;28;20313;-65
2022/02/07 06:55:39;;;;;;;14.02;3.85;;;;;;;;;;5113918;28;20261;-66
2022/02/07 06:58:06;;;;;;;14.25;3.15;;;;;;;;;;5113227;28;20641;-66
2022/02/07 07:00:34;;;;;;;13.90;4.00;;;;;;;;;;5113798;28;20203;-65
2022/02/07 07:03:01;;;;;;;13.00;3.90;;;;;;;;;;5113888;28;20706;-65
2022/02/07 07:05:30;;;;;;;13.80;3.55;;;;;;;;;;5113772;28;20268;-65
2022/02/07 07:07:57;;;;;;;13.50;4.68;;;;;;;;;;5113422;28;20241;-65
2022/02/07 07:10:25;;;;;;;15.68;3.63;;;;;;;;;;5113701;28;20221;-67
2022/02/07 07:13:00;;;;;;;9.55;2.67;;;;;;;;;;5113931;28;20618;-65
2022/02/07 07:15:35;;;;;;;17.65;3.20;;;;;;;;;;5113747;28;20185;-65
2022/02/07 07:18:02;;;;;;;16.02;4.13;;;;;;;;;;5115807;28;20263;-64
2022/02/07 07:20:31;;;;;;;10.20;3.00;;;;;;;;;;5117334;28;20205;-66
2022/02/07 07:23:01;;;;;;;19.55;3.00;;;;;;;;;;5117453;28;20264;-65
2022/02/07 07:25:29;;;;;;;21.30;4.30;;;;;;;;;;5117066;28;20752;-65
2022/02/07 07:28:00;;;;;;;14.70;3.90;;;;;;;;;;5117078;28;20228;-64
2022/02/07 07:30:31;;;;;;;22.13;5.85;;;;;;;;;;5117464;28;20194;-65
2022/02/07 07:33:02;;;;;;;11.32;3.75;;;;;;;;;;5117321;28;20186;-65
2022/02/07 07:35:31;;;;;;;15.07;3.20;;;;;;;;;;5117644;28;20186;-66
2022/02/07 07:37:58;;;;;;;13.10;3.60;;;;;;;;;;5117366;28;20195;-65
2022/02/07 07:40:25;;;;;;;15.07;3.10;;;;;;;;;;5117445;28;20598;-65
2022/02/07 07:42:54;;;;;;;10.23;3.10;;;;;;;;;;5116705;28;20244;-65
2022/02/07 07:45:25;;;;;;;10.45;2.65;;;;;;;;;;5116987;28;20223;-65
2022/02/07 07:47:58;;;;;;;6.90;2.50;;;;;;;;;;5117213;28;20525;-65
2022/02/07 07:50:30;;;;;;;9.93;3.17;;;;;;;;;;5117273;28;20238;-65
2022/02/07 07:53:11;;;;;;;15.73;3.05;;;;;;;;;;5116588;28;20184;-65
2022/02/07 08:03:53;;;;;;;13.20;2.70;;;;;;;;;;5116547;28;20369;-66
2022/02/07 08:06:24;;;;;;;10.07;3.05;;;;;;;;;;5115980;28;20226;-65
2022/02/07 08:09:16;;;;;;;13.40;3.25;;;;;;;;;;5117107;28;20603;-65
2022/02/07 08:11:44;;;;;;;9.25;3.50;;;;;;;;;;5116113;28;20192;-65
2022/02/07 08:14:12;;;;;;;15.40;3.00;;;;;;;;;;5116547;28;20196;-65
2022/02/07 08:16:39;;;;;;;20.30;4.13;;;;;;;;;;5116129;28;20198;-65
2022/02/07 08:19:07;;;;;;;10.45;2.90;;;;;;;;;;5116046;28;20200;-65
2022/02/07 08:21:34;;;;;;;15.55;2.40;;;;;;;;;;5116259;28;20201;-66
2022/02/07 08:24:03;;;;;;;11.32;3.30;;;;;;;;;;5116198;28;20230;-65
2022/02/07 08:26:31;;;;;;;12.95;3.05;;;;;;;;;;5116532;28;20306;-65
2022/02/07 08:28:58;;;;;;;14.80;3.25;;;;;;;;;;5115591;28;20234;-65
2022/02/07 08:31:25;;;;;;;7.72;2.20;;;;;;;;;;5115618;28;20233;-65
2022/02/07 08:33:53;;;;;;;14.07;4.60;;;;;;;;;;5115714;28;20191;-66
2022/02/07 08:36:21;;;;;;;7.80;3.08;;;;;;;;;;5115555;28;20283;-65
2022/02/07 08:38:48;;;;;;;14.90;3.38;;;;;;;;;;5116320;28;20191;-66
2022/02/07 08:41:17;;;;;;;29.33;4.20;;;;;;;;;;5115844;28;20227;-65
2022/02/07 08:43:44;;;;;;;12.85;2.20;;;;;;;;;;5115468;28;20246;-66
2022/02/07 08:46:12;;;;;;;6.30;2.88;;;;;;;;;;5116028;28;20215;-65
2022/02/07 08:48:39;;;;;;;14.50;2.90;;;;;;;;;;5115470;28;20200;-64
2022/02/07 08:51:07;;;;;;;9.73;3.60;;;;;;;;;;5115689;28;20200;-65
2022/02/07 08:53:39;;;;;;;19.85;3.45;;;;;;;;;;5115742;28;20243;-65
2022/02/07 08:56:06;;;;;;;10.30;3.40;;;;;;;;;;5115345;28;20184;-66
2022/02/07 08:58:37;;;;;;;12.35;2.58;;;;;;;;;;5115864;28;20196;-66
2022/02/07 09:01:12;;;;;;;13.65;2.53;;;;;;;;;;5115296;28;20377;-65
2022/02/07 09:06:37;;;;;;;19.38;3.53;;;;;;;;;;5083720;28;20235;-65
2022/02/07 09:09:10;;;;;;;10.57;3.00;;;;;;;;;;5115489;28;20187;-65
2022/02/07 09:11:38;;;;;;;17.90;3.65;;;;;;;;;;5115056;28;20188;-65
2022/02/07 09:14:12;;;;;;;7.82;4.35;;;;;;;;;;5115250;28;20191;-66
2022/02/07 09:16:39;;;;;;;11.20;3.33;;;;;;;;;;5115672;28;20192;-66
2022/02/07 09:19:08;;;;;;;12.73;2.88;;;;;;;;;;5114588;28;20222;-65
2022/02/07 09:21:36;;;;;;;13.00;3.35;;;;;;;;;;5115127;28;20222;-65
2022/02/07 09:24:03;;;;;;;11.55;5.13;;;;;;;;;;5115145;28;20597;-65
2022/02/07 09:26:31;;;;;;;15.85;3.80;;;;;;;;;;5114965;28;20331;-65
2022/02/07 09:28:58;;;;;;;20.13;5.20;;;;;;;;;;5114591;28;20197;-65
2022/02/07 09:31:27;;;;;;;14.95;2.80;;;;;;;;;;5114669;28;20195;-65
2022/02/07 09:33:54;;;;;;;12.45;3.00;;;;;;;;;;5114689;28;20198;-66
2022/02/07 09:36:22;;;;;;;13.18;4.25;;;;;;;;;;5114509;28;20289;-65
2022/02/07 09:38:50;;;;;;;18.42;3.60;;;;;;;;;;5114850;28;20248;-65
2022/02/07 09:41:20;;;;;;;17.67;2.83;;;;;;;;;;5115114;28;20191;-65
2022/02/07 09:43:49;;;;;;;24.58;4.80;;;;;;;;;;5115213;28;20198;-66
2022/02/07 09:46:22;;;;;;;11.52;3.13;;;;;;;;;;5114588;28;20573;-65
2022/02/07 09:48:55;;;;;;;10.63;3.65;;;;;;;;;;5114419;28;20237;-65
2022/02/07 09:51:22;;;;;;;12.07;3.53;;;;;;;;;;5114874;28;20194;-65
2022/02/07 09:53:49;;;;;;;16.90;3.53;;;;;;;;;;5114127;28;20199;-65
2022/02/07 09:56:17;;;;;;;11.05;3.28;;;;;;;;;;5114421;28;20251;-66
2022/02/07 09:58:49;;;;;;;10.10;3.25;;;;;;;;;;5114097;28;20200;-65
2022/02/07 10:01:24;;;;;;;15.38;3.60;;;;;;;;;;5114110;28;20191;-65
2022/02/07 10:03:58;;;;;;;12.68;3.38;;;;;;;;;;5114433;28;20283;-65
2022/02/07 10:06:44;;;;;;;15.77;2.80;;;;;;;;;;5114214;28;20235;-65
2022/02/07 10:09:24;;;;;;;28.75;5.03;;;;;;;;;;5114722;28;20549;-65
2022/02/07 10:12:09;;;;;;;11.35;3.40;;;;;;;;;;5114221;28;20192;-65
2022/02/07 10:14:46;;;;;;;16.65;2.85;;;;;;;;;;5113967;28;20702;-66
2022/02/07 10:17:35;;;;;;;14.43;3.60;;;;;;;;;;5113885;28;20274;-65
2022/02/07 10:20:43;;;;;;;16.00;3.20;;;;;;;;;;5113866;28;20184;-66
2022/02/07 10:34:43;;;;;;;11.05;3.60;;;;;;;;;;5113899;28;20685;-65
2022/02/07 10:40:13;;;;;;;13.52;3.55;;;;;;;;;;5113856;28;20183;-66
2022/02/07 10:43:07;;;;;;;22.70;4.35;;;;;;;;;;5113966;28;20205;-65
2022/02/07 10:45:35;;;;;;;11.10;3.00;;;;;;;;;;5113686;28;20240;-66
2022/02/07 10:48:07;;;;;;;16.65;4.07;;;;;;;;;;5113661;28;20225;-65
2022/02/07 10:50:34;;;;;;;5.82;2.53;;;;;;;;;;5114359;28;20190;-64
2022/02/07 10:53:03;;;;;;;18.40;5.43;;;;;;;;;;5116031;28;20643;-65
2022/02/07 10:55:31;;;;;;;12.95;3.70;;;;;;;;;;5118304;28;20202;-65
2022/02/07 10:57:59;;;;;;;10.07;3.28;;;;;;;;;;5117839;28;20631;-65
2022/02/07 11:00:31;;;;;;;23.40;3.15;;;;;;;;;;5117732;28;20207;-65
2022/02/07 11:03:05;;;;;;;9.63;2.38;;;;;;;;;;5118226;28;20183;-66
2022/02/07 11:05:39;;;;;;;8.50;3.30;;;;;;;;;;5117454;28;20721;-65
2022/02/07 11:08:22;;;;;;;13.70;2.67;;;;;;;;;;5117683;28;20209;-65
2022/02/07 11:11:17;;;;;;;18.50;3.30;;;;;;;;;;5117796;28;20267;-65
2022/02/07 11:14:00;;;;;;;11.02;4.95;;;;;;;;;;5117987;28;20252;-65
2022/02/07 11:16:37;;;;;;;11.68;4.55;;;;;;;;;;5117385;28;20185;-65
2022/02/07 11:19:12;;;;;;;10.98;3.53;;;;;;;;;;5117662;28;20189;-65
2022/02/07 11:22:08;;;;;;;6.50;2.45;;;;;;;;;;5117163;28;20187;-66
2022/02/07 11:24:57;;;;;;;11.65;3.70;;;;;;;;;;5117071;28;20179;-65
2022/02/07 11:27:36;;;;;;;13.15;4.75;;;;;;;;;;5117324;28;20231;-65
2022/02/07 11:30:07;;;;;;;15.82;4.32;;;;;;;;;;5117040;28;20184;-65
2022/02/07 11:32:57;;;;;;;9.02;3.35;;;;;;;;;;5117370;28;20211;-65
2022/02/07 11:35:26;;;;;;;12.82;3.58;;;;;;;;;;5117668;28;20188;-66
2022/02/07 11:37:55;;;;;;;6.35;3.78;;;;;;;;;;5116850;28;20195;-65
2022/02/07 11:40:28;;;;;;;11.00;4.10;;;;;;;;;;5116909;28;20235;-66
2022/02/07 11:43:06;;;;;;;19.50;4.00;;;;;;;;;;5117675;28;20525;-65
2022/02/07 11:45:48;;;;;;;12.27;3.80;;;;;;;;;;5116753;28;20271;-65
2022/02/07 11:48:16;;;;;;;15.43;3.08;;;;;;;;;;5116695;28;20406;-65
2022/02/07 11:50:44;;;;;;;13.27;2.97;;;;;;;;;;5116551;28;20230;-65
2022/02/07 11:53:12;;;;;;;22.88;4.70;;;;;;;;;;5116785;28;20196;-66
2022/02/07 11:55:44;;;;;;;11.75;3.72;;;;;;;;;;5116715;28;20199;-65
2022/02/07 11:58:19;;;;;;;11.82;4.53;;;;;;;;;;5117104;28;20198;-65
2022/02/07 12:00:48;;;;;;;14.90;4.00;;;;;;;;;;5116939;28;20311;-66
2022/02/07 12:03:16;;;;;;;10.73;2.63;;;;;;;;;;5115879;28;20634;-66
2022/02/07 12:05:44;;;;;;;10.10;3.10;;;;;;;;;;5116053;28;20223;-66
2022/02/07 12:08:16;;;;;;;20.63;3.72;;;;;;;;;;5116344;28;20647;-66
2022/02/07 12:10:49;;;;;;;16.60;3.15;;;;;;;;;;5116881;28;20180;-65
2022/02/07 12:13:28;;;;;;;8.70;3.45;;;;;;;;;;5116282;28;20225;-65
2022/02/07 12:15:56;;;;;;;15.25;3.20;;;;;;;;;;5116266;28;20198;-65
2022/02/07 12:18:25;;;;;;;15.05;2.95;;;;;;;;;;5115915;28;20680;-64
2022/02/07 12:20:53;;;;;;;10.93;3.20;;;;;;;;;;5116342;28;20290;-64
2022/02/07 12:23:21;;;;;;;18.90;3.75;;;;;;;;;;5116343;28;20196;-66
2022/02/07 12:25:54;;;;;;;7.03;2.88;;;;;;;;;;5116334;28;20234;-65
2022/02/07 12:28:31;;;;;;;6.38;2.63;;;;;;;;;;5116449;28;20220;-66
2022/02/07 12:31:08;;;;;;;3.90;2.00;;;;;;;;;;5116951;28;20195;-66
2022/02/07 12:33:36;;;;;;;10.13;2.60;;;;;;;;;;5116391;28;20191;-65
2022/02/07 12:36:05;;;;;;;8.20;3.60;;;;;;;;;;5116338;28;20229;-65
2022/02/07 12:38:34;;;;;;;13.20;3.00;;;;;;;;;;5115602;28;20257;-65
2022/02/07 12:41:04;;;;;;;12.48;3.00;;;;;;;;;;5115748;28;20199;-65
2022/02/07 12:43:34;;;;;;;16.63;2.80;;;;;;;;;;5115951;28;20641;-64
2022/02/07 12:46:07;;;;;;;8.77;3.22;;;;;;;;;;5116298;28;20222;-64
2022/02/07 12:48:39;;;;;;;13.50;3.38;;;;;;;;;;5116824;28;20692;-65
2022/02/07 12:51:06;;;;;;;11.32;2.40;;;;;;;;;;5116173;28;20595;-65
2022/02/07 12:53:34;;;;;;;12.38;3.47;;;;;;;;;;5115216;28;20250;-65
2022/02/07 12:56:05;;;;;;;10.88;2.95;;;;;;;;;;5115108;28;20534;-68
2022/02/07 12:58:35;;;;;;;7.80;2.60;;;;;;;;;;5115570;28;20207;-66
2022/02/07 13:01:16;;;;;;;12.45;2.72;;;;;;;;;;5115297;28;20226;-67
2022/02/07 13:03:48;;;;;;;14.75;3.05;;;;;;;;;;5115889;28;20184;-67
2022/02/07 13:06:15;;;;;;;11.10;2.78;;;;;;;;;;5115512;28;20623;-67
2022/02/07 13:08:47;;;;;;;14.43;3.20;;;;;;;;;;5114694;28;20214;-67
2022/02/07 13:11:25;;;;;;;21.98;3.53;;;;;;;;;;5114391;28;20190;-67
2022/02/07 13:13:53;;;;;;;13.00;2.78;;;;;;;;;;5114845;28;20181;-67
2022/02/07 13:16:20;;;;;;;15.18;3.03;;;;;;;;;;5114390;28;20295;-66
2022/02/07 13:18:48;;;;;;;7.82;2.53;;;;;;;;;;5114441;28;20286;-67
2022/02/07 13:21:17;;;;;;;13.38;3.47;;;;;;;;;;5114576;28;20196;-67
2022/02/07 13:23:46;;;;;;;11.25;3.40;;;;;;;;;;5114638;28;20661;-67
2022/02/07 13:26:13;;;;;;;12.07;2.30;;;;;;;;;;5114682;28;20253;-67
2022/02/07 13:28:43;;;;;;;8.48;2.85;;;;;;;;;;5114666;28;20689;-67
2022/02/07 13:31:11;;;;;;;8.48;2.75;;;;;;;;;;5114441;28;20554;-68
2022/02/07 13:33:48;;;;;;;5.43;3.03;;;;;;;;;;5114528;28;20207;-68
2022/02/07 13:36:26;;;;;;;10.32;2.88;;;;;;;;;;5114421;28;20382;-67
2022/02/07 13:38:54;;;;;;;4.18;2.00;;;;;;;;;;5114399;28;20192;-68
2022/02/07 13:41:21;;;;;;;11.55;2.72;;;;;;;;;;5114155;28;20196;-67
2022/02/07 13:43:50;;;;;;;7.70;3.15;;;;;;;;;;5114318;28;20649;-66
2022/02/07 13:46:18;;;;;;;3.83;2.55;;;;;;;;;;5113974;28;20282;-68
2022/02/07 13:48:47;;;;;;;15.73;2.35;;;;;;;;;;5114076;28;20220;-68
2022/02/07 13:51:16;;;;;;;10.45;3.50;;;;;;;;;;5114479;28;20534;-68
2022/02/07 13:53:45;;;;;;;8.05;2.97;;;;;;;;;;5114558;28;20292;-67
2022/02/07 13:56:13;;;;;;;8.65;2.90;;;;;;;;;;5114808;28;20196;-67
2022/02/07 13:58:42;;;;;;;17.13;3.40;;;;;;;;;;5114238;28;20224;-68
2022/02/07 14:01:13;;;;;;;10.15;2.88;;;;;;;;;;5114516;28;20550;-67
2022/02/07 14:03:42;;;;;;;20.27;3.60;;;;;;;;;;5114497;28;20207;-67
2022/02/07 14:06:16;;;;;;;10.82;3.03;;;;;;;;;;5113311;28;20230;-67
2022/02/07 14:08:47;;;;;;;14.25;3.22;;;;;;;;;;5113405;28;20202;-68
2022/02/07 14:11:16;;;;;;;6.00;2.08;;;;;;;;;;5114134;28;20188;-67
2022/02/07 14:13:45;;;;;;;14.07;3.30;;;;;;;;;;5114185;28;20198;-67
2022/02/07 14:16:15;;;;;;;7.30;2.15;;;;;;;;;;5114485;28;20279;-67
2022/02/07 14:18:46;;;;;;;6.60;2.90;;;;;;;;;;5114261;28;20248;-68
2022/02/07 14:21:15;;;;;;;11.88;2.63;;;;;;;;;;5114301;28;20180;-67
2022/02/07 14:23:43;;;;;;;4.47;2.70;;;;;;;;;;5113708;28;20201;-68
2022/02/07 14:26:15;;;;;;;12.32;2.55;;;;;;;;;;5113238;28;20203;-68
2022/02/07 14:28:42;;;;;;;12.95;3.35;;;;;;;;;;5113371;28;20223;-68
2022/02/07 14:31:12;;;;;;;9.02;2.67;;;;;;;;;;5113680;28;20286;-69
2022/02/07 14:33:40;;;;;;;9.77;4.18;;;;;;;;;;5114034;28;20241;-68
2022/02/07 14:36:08;;;;;;;14.30;2.90;;;;;;;;;;5113696;28;20658;-67
2022/02/07 14:38:35;;;;;;;9.50;2.55;;;;;;;;;;5114140;28;20192;-68
2022/02/07 14:41:05;;;;;;;4.70;2.15;;;;;;;;;;5113560;28;20283;-68
2022/02/07 14:43:33;;;;;;;6.07;2.50;;;;;;;;;;5113848;28;20596;-68
2022/02/07 14:46:08;;;;;;;14.63;2.97;;;;;;;;;;5113153;28;20201;-68
2022/02/07 14:48:35;;;;;;;7.72;2.53;;;;;;;;;;5113386;28;20206;-68
2022/02/07 14:51:06;;;;;;;7.25;3.20;;;;;;;;;;5113619;28;20195;-67
2022/02/07 14:53:33;;;;;;;6.13;2.20;;;;;;;;;;5113585;28;20195;-68
2022/02/07 14:56:00;;;;;;;7.93;2.40;;;;;;;;;;5113579;28;20288;-68
2022/02/07 14:58:28;;;;;;;8.98;2.65;;;;;;;;;;5113954;28;20233;-68
2022/02/07 15:00:55;;;;;;;10.10;2.53;;;;;;;;;;5113267;28;20237;-66
2022/02/07 15:03:23;;;;;;;12.40;2.60;;;;;;;;;;5113472;28;20215;-66
2022/02/07 15:05:53;;;;;;;9.00;2.67;;;;;;;;;;5113273;28;20276;-69
2022/02/07 15:08:22;;;;;;;8.48;2.80;;;;;;;;;;5112799;28;20237;-69
2022/02/07 15:10:50;;;;;;;7.18;2.28;;;;;;;;;;5112843;28;20195;-70
2022/02/07 15:13:17;;;;;;;6.82;2.58;;;;;;;;;;5113366;28;20199;-68
2022/02/07 15:15:45;;;;;;;8.15;3.85;;;;;;;;;;5113621;28;20196;-69
2022/02/07 15:18:12;;;;;;;12.88;3.30;;;;;;;;;;5113434;28;20608;-68
2022/02/07 15:20:41;;;;;;;6.68;2.63;;;;;;;;;;5113450;28;20193;-68
2022/02/07 15:23:10;;;;;;;7.25;2.90;;;;;;;;;;5113332;28;20192;-68
2022/02/07 15:25:39;;;;;;;14.90;3.10;;;;;;;;;;5113360;28;20203;-77
2022/02/07 15:28:07;;;;;;;11.88;2.85;;;;;;;;;;5112561;28;20212;-70
2022/02/07 15:30:40;;;;;;;8.68;2.22;;;;;;;;;;5112847;28;20197;-69
2022/02/07 15:33:09;;;;;;;2.15;1.67;;;;;;;;;;5112383;28;20193;-68
2022/02/07 15:35:36;;;;;;;6.18;2.30;;;;;;;;;;5112772;28;20249;-68
2022/02/07 15:38:06;;;;;;;4.78;2.80;;;;;;;;;;5113515;28;20203;-70
2022/02/07 15:40:34;;;;;;;11.40;3.03;;;;;;;;;;5117185;28;20229;-70
2022/02/07 15:43:02;;;;;;;10.55;2.83;;;;;;;;;;5117017;28;20531;-69
2022/02/07 15:45:30;;;;;;;5.80;2.58;;;;;;;;;;5116997;28;20645;-69
2022/02/07 15:47:59;;;;;;;7.72;2.22;;;;;;;;;;5116324;28;20226;-68
2022/02/07 15:50:26;;;;;;;11.07;2.10;;;;;;;;;;5115947;28;20207;-70
2022/02/07 15:52:54;;;;;;;8.35;2.85;;;;;;;;;;5116614;28;20516;-69
2022/02/07 15:55:21;;;;;;;9.38;2.67;;;;;;;;;;5116480;28;20286;-69
2022/02/07 15:57:48;;;;;;;3.90;2.20;;;;;;;;;;5116690;28;20240;-69
2022/02/07 16:00:17;;;;;;;13.55;3.10;;;;;;;;;;5116707;28;20195;-69
2022/02/07 16:02:48;;;;;;;13.52;2.45;;;;;;;;;;5116447;28;20232;-69
2022/02/07 16:05:17;;;;;;;14.05;3.22;;;;;;;;;;5116963;28;20188;-68
2022/02/07 16:07:45;;;;;;;6.70;2.17;;;;;;;;;;5115977;28;20599;-68
2022/02/07 16:10:12;;;;;;;11.52;3.15;;;;;;;;;;5115953;28;20565;-69
2022/02/07 16:12:41;;;;;;;16.15;2.90;;;;;;;;;;5115719;28;20196;-67
2022/02/07 16:15:09;;;;;;;6.35;2.33;;;;;;;;;;5116405;28;20253;-68
2022/02/07 16:17:37;;;;;;;5.65;2.45;;;;;;;;;;5117154;28;20226;-67
2022/02/07 16:20:06;;;;;;;6.70;2.83;;;;;;;;;;5116986;28;20197;-67
2022/02/07 16:22:33;;;;;;;7.78;2.50;;;;;;;;;;5115743;28;20656;-67